Time,TemperatureF,DewpointF,PressureIn,WindDirection,WindDirectionDegrees,WindSpeedMPH,WindSpeedGustMPH,Humidity,HourlyPrecipIn,Conditions,Clouds,dailyrainin,SoftwareType,DateUTC
2013-01-21 00:00:00,38.0,34.0,-100.00,South,169,4.0,-999.0,86,0.00,,,-99.99,,2013-01-21 08:00:00,
2013-01-21 00:23:00,38.0,34.0,-100.00,South,169,4.0,-999.0,86,0.00,,,-99.99,,2013-01-21 08:23:00,
2013-01-21 00:33:00,38.0,34.0,-100.00,South,169,4.0,-999.0,86,0.00,,,-99.99,,2013-01-21 08:33:00,
2013-01-21 00:43:00,38.0,34.0,-100.00,South,169,4.0,-999.0,86,0.00,,,-99.99,,2013-01-21 08:43:00,
2013-01-21 00:53:00,38.0,34.0,-100.00,South,169,4.0,-999.0,86,0.00,,,-99.99,,2013-01-21 08:53:00,
2013-01-21 01:00:00,36.0,33.0,-100.00,South,185,3.0,-999.0,90,0.00,,,-99.99,,2013-01-21 09:00:00,
2013-01-21 01:23:00,36.0,33.0,-100.00,South,185,3.0,-999.0,90,0.00,,,-99.99,,2013-01-21 09:23:00,
2013-01-21 01:33:00,36.0,33.0,-100.00,South,185,3.0,-999.0,90,0.00,,,-99.99,,2013-01-21 09:33:00,
2013-01-21 01:42:00,36.0,33.0,-100.00,South,185,3.0,-999.0,90,0.00,,,-99.99,,2013-01-21 09:42:00,
2013-01-21 01:53:00,36.0,33.0,-100.00,South,185,3.0,-999.0,90,0.00,,,-99.99,,2013-01-21 09:53:00,
2013-01-21 02:00:00,36.0,34.0,-100.00,SE,129,4.0,-999.0,91,0.00,,,-99.99,,2013-01-21 10:00:00,
2013-01-21 02:23:00,36.0,34.0,-100.00,SE,129,4.0,-999.0,91,0.00,,,-99.99,,2013-01-21 10:23:00,
2013-01-21 02:33:00,36.0,34.0,-100.00,SE,129,4.0,-999.0,91,0.00,,,-99.99,,2013-01-21 10:33:00,
2013-01-21 02:43:00,36.0,34.0,-100.00,SE,129,4.0,-999.0,91,0.00,,,-99.99,,2013-01-21 10:43:00,
2013-01-21 02:52:00,36.0,34.0,-100.00,SE,129,4.0,-999.0,91,0.00,,,-99.99,,2013-01-21 10:52:00,
2013-01-21 03:00:00,32.0,30.0,-100.00,South,172,6.0,-999.0,93,0.00,,,-99.99,,2013-01-21 11:00:00,
2013-01-21 03:23:00,32.0,30.0,-100.00,South,172,6.0,-999.0,93,0.00,,,-99.99,,2013-01-21 11:23:00,
2013-01-21 03:33:00,32.0,30.0,-100.00,South,172,6.0,-999.0,93,0.00,,,-99.99,,2013-01-21 11:33:00,
2013-01-21 03:43:00,32.0,30.0,-100.00,South,172,6.0,-999.0,93,0.00,,,-99.99,,2013-01-21 11:43:00,
2013-01-21 03:53:00,32.0,30.0,-100.00,South,172,6.0,-999.0,93,0.00,,,-99.99,,2013-01-21 11:53:00,
2013-01-21 04:00:00,33.0,32.0,-100.00,South,175,7.0,-999.0,94,0.00,,,-99.99,,2013-01-21 12:00:00,
2013-01-21 04:23:00,33.0,32.0,-100.00,South,175,7.0,-999.0,94,0.00,,,-99.99,,2013-01-21 12:23:00,
2013-01-21 04:33:00,33.0,32.0,-100.00,South,175,7.0,-999.0,94,0.00,,,-99.99,,2013-01-21 12:33:00,
2013-01-21 04:43:00,33.0,32.0,-100.00,South,175,7.0,-999.0,94,0.00,,,-99.99,,2013-01-21 12:43:00,
2013-01-21 04:53:00,33.0,32.0,-100.00,South,175,7.0,-999.0,94,0.00,,,-99.99,,2013-01-21 12:53:00,
2013-01-21 05:23:00,30.0,28.0,-100.00,South,175,6.0,-999.0,94,0.00,,,-99.99,,2013-01-21 13:23:00,
2013-01-21 05:33:00,30.0,28.0,-100.00,South,175,6.0,-999.0,94,0.00,,,-99.99,,2013-01-21 13:33:00,
2013-01-21 05:43:00,30.0,28.0,-100.00,South,175,6.0,-999.0,94,0.00,,,-99.99,,2013-01-21 13:43:00,
2013-01-21 05:53:00,30.0,28.0,-100.00,South,175,6.0,-999.0,94,0.00,,,-99.99,,2013-01-21 13:53:00,
2013-01-21 06:00:00,31.0,29.0,-100.00,South,188,3.0,-999.0,92,0.00,,,-99.99,,2013-01-21 14:00:00,
2013-01-21 06:23:00,31.0,29.0,-100.00,South,188,3.0,-999.0,92,0.00,,,-99.99,,2013-01-21 14:23:00,
2013-01-21 06:33:00,31.0,29.0,-100.00,South,188,3.0,-999.0,92,0.00,,,-99.99,,2013-01-21 14:33:00,
2013-01-21 06:43:00,31.0,29.0,-100.00,South,188,3.0,-999.0,92,0.00,,,-99.99,,2013-01-21 14:43:00,
2013-01-21 06:53:00,31.0,29.0,-100.00,South,188,3.0,-999.0,92,0.00,,,-99.99,,2013-01-21 14:53:00,
2013-01-21 07:00:00,31.0,30.0,-100.00,SSE,153,5.0,-999.0,95,0.00,,,-99.99,,2013-01-21 15:00:00,
2013-01-21 07:23:00,31.0,30.0,-100.00,SSE,153,5.0,-999.0,95,0.00,,,-99.99,,2013-01-21 15:23:00,
2013-01-21 07:33:00,31.0,30.0,-100.00,SSE,153,5.0,-999.0,95,0.00,,,-99.99,,2013-01-21 15:33:00,
2013-01-21 07:43:00,31.0,30.0,-100.00,SSE,153,5.0,-999.0,95,0.00,,,-99.99,,2013-01-21 15:43:00,
2013-01-21 07:53:00,31.0,30.0,-100.00,SSE,153,5.0,-999.0,95,0.00,,,-99.99,,2013-01-21 15:53:00,
2013-01-21 08:00:00,29.0,28.0,-100.00,SSE,154,6.0,-999.0,95,0.00,,,-99.99,,2013-01-21 16:00:00,
2013-01-21 08:23:00,29.0,28.0,-100.00,SSE,154,6.0,-999.0,95,0.00,,,-99.99,,2013-01-21 16:23:00,
2013-01-21 08:33:00,29.0,28.0,-100.00,SSE,154,6.0,-999.0,95,0.00,,,-99.99,,2013-01-21 16:33:00,
2013-01-21 08:43:00,29.0,28.0,-100.00,SSE,154,6.0,-999.0,95,0.00,,,-99.99,,2013-01-21 16:43:00,
2013-01-21 08:53:00,29.0,28.0,-100.00,SSE,154,6.0,-999.0,95,0.00,,,-99.99,,2013-01-21 16:53:00,
2013-01-21 09:00:00,33.0,30.0,-100.00,SSE,158,2.0,-999.0,89,0.00,,,-99.99,,2013-01-21 17:00:00,
2013-01-21 09:23:00,33.0,30.0,-100.00,SSE,158,2.0,-999.0,89,0.00,,,-99.99,,2013-01-21 17:23:00,
2013-01-21 09:33:00,33.0,30.0,-100.00,SSE,158,2.0,-999.0,89,0.00,,,-99.99,,2013-01-21 17:33:00,
2013-01-21 09:43:00,33.0,30.0,-100.00,SSE,158,2.0,-999.0,89,0.00,,,-99.99,,2013-01-21 17:43:00,
2013-01-21 09:53:00,33.0,30.0,-100.00,SSE,158,2.0,-999.0,89,0.00,,,-99.99,,2013-01-21 17:53:00,
2013-01-21 10:00:00,38.0,33.0,-100.00,SSE,164,2.0,-999.0,83,0.00,,,-99.99,,2013-01-21 18:00:00,
2013-01-21 10:23:00,38.0,33.0,-100.00,SSE,164,2.0,-999.0,83,0.00,,,-99.99,,2013-01-21 18:23:00,
2013-01-21 10:33:00,38.0,33.0,-100.00,SSE,164,2.0,-999.0,83,0.00,,,-99.99,,2013-01-21 18:33:00,
2013-01-21 10:43:00,38.0,33.0,-100.00,SSE,164,2.0,-999.0,83,0.00,,,-99.99,,2013-01-21 18:43:00,
2013-01-21 10:53:00,38.0,33.0,-100.00,SSE,164,2.0,-999.0,83,0.00,,,-99.99,,2013-01-21 18:53:00,
2013-01-21 11:00:00,44.0,36.0,-100.00,SSE,156,3.0,-999.0,72,0.00,,,-99.99,,2013-01-21 19:00:00,
2013-01-21 11:23:00,44.0,36.0,-100.00,SSE,156,3.0,-999.0,72,0.00,,,-99.99,,2013-01-21 19:23:00,
2013-01-21 11:33:00,44.0,36.0,-100.00,SSE,156,3.0,-999.0,72,0.00,,,-99.99,,2013-01-21 19:33:00,
2013-01-21 11:43:00,44.0,36.0,-100.00,SSE,156,3.0,-999.0,72,0.00,,,-99.99,,2013-01-21 19:43:00,
2013-01-21 11:53:00,44.0,36.0,-100.00,SSE,156,3.0,-999.0,72,0.00,,,-99.99,,2013-01-21 19:53:00,
2013-01-21 12:00:00,54.0,36.0,-100.00,SE,140,2.0,-999.0,49,0.00,,,-99.99,,2013-01-21 20:00:00,
2013-01-21 12:23:00,54.0,36.0,-100.00,SE,140,2.0,-999.0,49,0.00,,,-99.99,,2013-01-21 20:23:00,
2013-01-21 12:33:00,54.0,36.0,-100.00,SE,140,2.0,-999.0,49,0.00,,,-99.99,,2013-01-21 20:33:00,
2013-01-21 12:43:00,54.0,36.0,-100.00,SE,140,2.0,-999.0,49,0.00,,,-99.99,,2013-01-21 20:43:00,
2013-01-21 12:53:00,54.0,36.0,-100.00,SE,140,2.0,-999.0,49,0.00,,,-99.99,,2013-01-21 20:53:00,
2013-01-21 13:00:00,62.0,33.0,-100.00,SSW,199,1.0,-999.0,33,0.00,,,-99.99,,2013-01-21 21:00:00,
2013-01-21 13:23:00,62.0,33.0,-100.00,SSW,199,1.0,-999.0,33,0.00,,,-99.99,,2013-01-21 21:23:00,
2013-01-21 13:33:00,62.0,33.0,-100.00,SSW,199,1.0,-999.0,33,0.00,,,-99.99,,2013-01-21 21:33:00,
2013-01-21 13:43:00,62.0,33.0,-100.00,SSW,199,1.0,-999.0,33,0.00,,,-99.99,,2013-01-21 21:43:00,
2013-01-21 13:53:00,62.0,33.0,-100.00,SSW,199,1.0,-999.0,33,0.00,,,-99.99,,2013-01-21 21:53:00,
2013-01-21 14:00:00,68.0,41.0,-100.00,South,174,2.0,-999.0,37,0.00,,,-99.99,,2013-01-21 22:00:00,
2013-01-21 14:23:00,68.0,41.0,-100.00,South,174,2.0,-999.0,37,0.00,,,-99.99,,2013-01-21 22:23:00,
2013-01-21 14:33:00,68.0,41.0,-100.00,South,174,2.0,-999.0,37,0.00,,,-99.99,,2013-01-21 22:33:00,
2013-01-21 14:43:00,68.0,41.0,-100.00,South,174,2.0,-999.0,37,0.00,,,-99.99,,2013-01-21 22:43:00,
2013-01-21 14:53:00,68.0,41.0,-100.00,South,174,2.0,-999.0,37,0.00,,,-99.99,,2013-01-21 22:53:00,
2013-01-21 15:00:00,69.0,38.0,-100.00,SSW,199,4.0,-999.0,32,0.00,,,-99.99,,2013-01-21 23:00:00,
2013-01-21 15:23:00,69.0,38.0,-100.00,SSW,199,4.0,-999.0,32,0.00,,,-99.99,,2013-01-21 23:23:00,
2013-01-21 15:33:00,69.0,38.0,-100.00,SSW,199,4.0,-999.0,32,0.00,,,-99.99,,2013-01-21 23:33:00,
2013-01-21 15:43:00,69.0,38.0,-100.00,SSW,199,4.0,-999.0,32,0.00,,,-99.99,,2013-01-21 23:43:00,
2013-01-21 15:53:00,69.0,38.0,-100.00,SSW,199,4.0,-999.0,32,0.00,,,-99.99,,2013-01-21 23:53:00,
2013-01-21 16:00:00,68.0,33.0,-100.00,South,187,6.0,-999.0,26,0.00,,,-99.99,,2013-01-22 00:00:00,
2013-01-21 16:23:00,68.0,33.0,-100.00,South,187,6.0,-999.0,26,0.00,,,-99.99,,2013-01-22 00:23:00,
2013-01-21 16:33:00,68.0,33.0,-100.00,South,187,6.0,-999.0,26,0.00,,,-99.99,,2013-01-22 00:33:00,
2013-01-21 16:43:00,68.0,33.0,-100.00,South,187,6.0,-999.0,26,0.00,,,-99.99,,2013-01-22 00:43:00,
2013-01-21 16:53:00,68.0,33.0,-100.00,South,187,6.0,-999.0,26,0.00,,,-99.99,,2013-01-22 00:53:00,
2013-01-21 17:23:00,66.0,36.0,-100.00,South,185,2.0,-999.0,32,0.00,,,-99.99,,2013-01-22 01:23:00,
2013-01-21 17:33:00,66.0,36.0,-100.00,South,185,2.0,-999.0,32,0.00,,,-99.99,,2013-01-22 01:33:00,
2013-01-21 17:43:00,66.0,36.0,-100.00,South,185,2.0,-999.0,32,0.00,,,-99.99,,2013-01-22 01:43:00,
2013-01-21 17:52:00,66.0,36.0,-100.00,South,185,2.0,-999.0,32,0.00,,,-99.99,,2013-01-22 01:52:00,
2013-01-21 18:00:00,59.0,37.0,-100.00,SSE,158,3.0,-999.0,44,0.00,,,-99.99,,2013-01-22 02:00:00,
2013-01-21 18:23:00,59.0,37.0,-100.00,SSE,158,3.0,-999.0,44,0.00,,,-99.99,,2013-01-22 02:23:00,
2013-01-21 18:33:00,59.0,37.0,-100.00,SSE,158,3.0,-999.0,44,0.00,,,-99.99,,2013-01-22 02:33:00,
2013-01-21 18:43:00,59.0,37.0,-100.00,SSE,158,3.0,-999.0,44,0.00,,,-99.99,,2013-01-22 02:43:00,
2013-01-21 18:53:00,59.0,37.0,-100.00,SSE,158,3.0,-999.0,44,0.00,,,-99.99,,2013-01-22 02:53:00,
2013-01-21 19:00:00,53.0,36.0,-100.00,WNW,291,1.0,-999.0,53,0.00,,,-99.99,,2013-01-22 03:00:00,
2013-01-21 19:22:00,53.0,36.0,-100.00,WNW,291,1.0,-999.0,53,0.00,,,-99.99,,2013-01-22 03:22:00,
2013-01-21 19:33:00,53.0,36.0,-100.00,WNW,291,1.0,-999.0,53,0.00,,,-99.99,,2013-01-22 03:33:00,
2013-01-21 19:42:00,53.0,36.0,-100.00,WNW,291,1.0,-999.0,53,0.00,,,-99.99,,2013-01-22 03:42:00,
2013-01-21 19:52:00,53.0,36.0,-100.00,WNW,291,1.0,-999.0,53,0.00,,,-99.99,,2013-01-22 03:52:00,
2013-01-21 20:00:00,48.0,36.0,-100.00,South,180,2.0,-999.0,63,0.00,,,-99.99,,2013-01-22 04:00:00,
2013-01-21 20:22:00,48.0,36.0,-100.00,South,180,2.0,-999.0,63,0.00,,,-99.99,,2013-01-22 04:22:00,
2013-01-21 20:33:00,48.0,36.0,-100.00,South,180,2.0,-999.0,63,0.00,,,-99.99,,2013-01-22 04:33:00,
2013-01-21 20:42:00,48.0,36.0,-100.00,South,180,2.0,-999.0,63,0.00,,,-99.99,,2013-01-22 04:42:00,
2013-01-21 20:52:00,48.0,36.0,-100.00,South,180,2.0,-999.0,63,0.00,,,-99.99,,2013-01-22 04:52:00,
2013-01-21 21:00:00,48.0,35.0,-100.00,NNW,341,0.0,-999.0,62,0.00,,,-99.99,,2013-01-22 05:00:00,
2013-01-21 21:23:00,48.0,35.0,-100.00,NNW,341,0.0,-999.0,62,0.00,,,-99.99,,2013-01-22 05:23:00,
2013-01-21 21:33:00,48.0,35.0,-100.00,NNW,341,0.0,-999.0,62,0.00,,,-99.99,,2013-01-22 05:33:00,
2013-01-21 21:43:00,48.0,35.0,-100.00,NNW,341,0.0,-999.0,62,0.00,,,-99.99,,2013-01-22 05:43:00,
2013-01-21 21:53:00,48.0,35.0,-100.00,NNW,341,0.0,-999.0,62,0.00,,,-99.99,,2013-01-22 05:53:00,
2013-01-21 22:00:00,43.0,36.0,-100.00,South,182,3.0,-999.0,74,0.00,,,-99.99,,2013-01-22 06:00:00,
2013-01-21 22:22:00,43.0,36.0,-100.00,South,182,3.0,-999.0,74,0.00,,,-99.99,,2013-01-22 06:22:00,
2013-01-21 22:33:00,43.0,36.0,-100.00,South,182,3.0,-999.0,74,0.00,,,-99.99,,2013-01-22 06:33:00,
2013-01-21 22:43:00,43.0,36.0,-100.00,South,182,3.0,-999.0,74,0.00,,,-99.99,,2013-01-22 06:43:00,
2013-01-21 22:52:00,43.0,36.0,-100.00,South,182,3.0,-999.0,74,0.00,,,-99.99,,2013-01-22 06:52:00,
2013-01-21 23:00:00,42.0,35.0,-100.00,South,177,5.0,-999.0,78,0.00,,,-99.99,,2013-01-22 07:00:00,
2013-01-21 23:22:00,42.0,35.0,-100.00,South,177,5.0,-999.0,78,0.00,,,-99.99,,2013-01-22 07:22:00,
2013-01-21 23:33:00,42.0,35.0,-100.00,South,177,5.0,-999.0,78,0.00,,,-99.99,,2013-01-22 07:33:00,
2013-01-21 23:42:00,42.0,35.0,-100.00,South,177,5.0,-999.0,78,0.00,,,-99.99,,2013-01-22 07:42:00,
2013-01-21 23:52:00,42.0,35.0,-100.00,South,177,5.0,-999.0,78,0.00,,,-99.99,,2013-01-22 07:52:00,